Time;durP1;ratioP1;P1;durP2;ratioP2;P2;SDS_P1;SDS_P2;PMS_P1;PMS_P2;Temp;Humidity;BMP_temperature;BMP_pressure;BME280_temperature;BME280_humidity;BME280_pressure;Samples;Min_cycle;Max_cycle;Signal;HPM_P1;HPM_P2
2023/02/12 00:01:54;;;;;;;13.23;10.93;;;9.30;99.90;;;;;;5093486;28;20228;-80
2023/02/12 00:04:22;;;;;;;14.57;11.43;;;9.20;99.90;;;;;;5093719;28;20184;-78
2023/02/12 00:06:49;;;;;;;12.87;11.47;;;9.20;99.90;;;;;;5093898;28;20207;-79
2023/02/12 00:09:18;;;;;;;13.27;10.87;;;9.20;99.90;;;;;;5093585;28;20228;-79
2023/02/12 00:11:44;;;;;;;11.23;10.10;;;9.30;99.90;;;;;;5093667;28;20196;-79
2023/02/12 00:14:11;;;;;;;12.70;10.97;;;9.30;99.90;;;;;;5093304;28;20205;-82
2023/02/12 00:16:38;;;;;;;14.57;11.43;;;9.40;99.90;;;;;;5093484;28;20190;-79
2023/02/12 00:19:05;;;;;;;14.33;11.37;;;9.50;99.90;;;;;;5093555;28;20228;-80
2023/02/12 00:21:32;;;;;;;17.23;15.45;;;9.50;99.90;;;;;;5092364;28;20446;-80
2023/02/12 00:23:59;;;;;;;15.40;13.60;;;9.70;99.90;;;;;;5093423;28;20580;-79
2023/02/12 00:26:28;;;;;;;15.00;12.97;;;9.70;99.90;;;;;;5093445;28;20647;-79
2023/02/12 00:28:55;;;;;;;14.37;12.27;;;9.80;99.90;;;;;;5093852;28;20186;-79
2023/02/12 00:31:25;;;;;;;15.17;12.13;;;9.90;99.90;;;;;;5093085;28;20209;-79
2023/02/12 00:33:52;;;;;;;13.53;12.13;;;9.80;99.90;;;;;;5093482;28;20209;-79
2023/02/12 00:36:22;;;;;;;12.80;11.37;;;9.80;99.90;;;;;;5093065;28;20205;-82
2023/02/12 00:38:51;;;;;;;11.90;10.67;;;9.70;99.90;;;;;;5093059;28;20556;-78
2023/02/12 00:41:18;;;;;;;12.27;11.17;;;9.60;99.90;;;;;;5092798;28;20614;-79
2023/02/12 00:43:47;;;;;;;11.60;10.40;;;9.30;99.90;;;;;;5093327;28;20232;-79
2023/02/12 00:46:15;;;;;;;11.73;10.63;;;9.00;99.90;;;;;;5092749;28;20204;-80
2023/02/12 00:48:42;;;;;;;12.73;11.43;;;9.10;99.90;;;;;;5093045;28;20209;-80
2023/02/12 00:51:09;;;;;;;14.23;12.67;;;9.30;99.90;;;;;;5092929;28;20208;-78
2023/02/12 00:53:37;;;;;;;13.33;11.90;;;9.40;99.90;;;;;;5092862;28;20200;-82
2023/02/12 00:56:05;;;;;;;12.80;11.50;;;9.50;99.90;;;;;;5092925;28;20532;-79
2023/02/12 00:58:32;;;;;;;13.50;11.43;;;9.70;99.90;;;;;;5093156;28;20209;-81
2023/02/12 01:01:00;;;;;;;13.17;11.87;;;9.80;99.90;;;;;;5092723;28;20232;-82
2023/02/12 01:03:27;;;;;;;13.17;11.87;;;9.80;99.90;;;;;;5092756;28;20193;-81
2023/02/12 01:05:54;;;;;;;13.47;11.77;;;9.80;99.90;;;;;;5093076;28;20205;-81
2023/02/12 01:08:21;;;;;;;12.77;11.50;;;9.90;99.90;;;;;;5092847;28;20205;-82
2023/02/12 01:10:54;;;;;;;16.93;12.50;;;9.90;99.90;;;;;;5092827;28;20573;-81
2023/02/12 01:13:22;;;;;;;12.87;11.50;;;9.90;99.90;;;;;;5093138;28;20208;-84
2023/02/12 01:15:49;;;;;;;15.23;11.27;;;9.80;99.90;;;;;;5092680;28;20198;-81
2023/02/12 01:18:17;;;;;;;13.30;11.47;;;9.80;99.90;;;;;;5096786;28;20236;-82
2023/02/12 01:20:44;;;;;;;15.18;13.77;;;9.80;99.90;;;;;;5095639;28;20959;-82
2023/02/12 01:23:11;;;;;;;12.33;11.20;;;9.60;99.90;;;;;;5096657;28;20206;-80
2023/02/12 01:25:38;;;;;;;12.77;11.47;;;9.60;99.90;;;;;;5097107;28;20198;-81
2023/02/12 01:28:05;;;;;;;14.67;12.53;;;9.70;99.90;;;;;;5096582;28;20200;-82
2023/02/12 01:30:32;;;;;;;12.83;11.53;;;9.80;99.90;;;;;;5096619;28;20216;-83
2023/02/12 01:32:59;;;;;;;16.20;12.17;;;9.80;99.90;;;;;;5096473;28;20190;-80
2023/02/12 01:35:28;;;;;;;13.47;12.03;;;9.90;99.90;;;;;;5096745;28;20209;-82
2023/02/12 01:37:55;;;;;;;14.13;12.07;;;9.80;99.90;;;;;;5096669;28;20196;-81
2023/02/12 01:40:22;;;;;;;14.13;12.50;;;9.80;99.90;;;;;;5096347;28;20196;-81
2023/02/12 01:42:50;;;;;;;13.70;11.83;;;9.80;99.90;;;;;;5096228;28;20212;-80
2023/02/12 01:45:49;;;;;;;14.60;12.63;;;9.80;99.90;;;;;;5096356;28;20216;-82
2023/02/12 01:48:18;;;;;;;13.80;12.40;;;9.80;99.90;;;;;;5096244;28;20205;-82
2023/02/12 01:50:50;;;;;;;16.67;15.07;;;9.70;99.90;;;;;;5095426;28;20470;-80
2023/02/12 01:53:19;;;;;;;13.17;11.97;;;9.90;99.90;;;;;;5094607;28;20254;-81
2023/02/12 01:55:48;;;;;;;13.73;12.10;;;10.00;99.90;;;;;;5095572;28;20210;-80
2023/02/12 01:58:16;;;;;;;11.53;10.43;;;9.90;99.90;;;;;;5092352;28;20210;-80
2023/02/12 02:00:44;;;;;;;12.50;10.80;;;9.80;99.90;;;;;;5091234;28;20236;-79
2023/02/12 02:03:11;;;;;;;12.27;10.47;;;9.80;99.90;;;;;;5095340;28;20683;-83
2023/02/12 02:05:43;;;;;;;11.37;10.37;;;9.70;99.90;;;;;;5095837;28;20205;-80
2023/02/12 02:08:14;;;;;;;13.47;10.90;;;9.80;99.90;;;;;;5095758;28;20656;-81
2023/02/12 02:10:41;;;;;;;11.57;10.37;;;9.60;99.90;;;;;;5095543;28;20571;-80
2023/02/12 02:15:58;;;;;;;9.60;8.70;;;9.60;99.90;;;;;;5095586;28;20351;-80
2023/02/12 02:18:34;;;;;;;10.00;9.20;;;9.40;99.90;;;;;;5092280;28;20229;-82
2023/02/12 02:21:49;;;;;;;10.43;9.53;;;9.50;99.90;;;;;;5095359;28;20213;-81
2023/02/12 02:25:04;;;;;;;13.13;10.43;;;9.60;99.90;;;;;;5084205;28;20208;-82
2023/02/12 02:27:40;;;;;;;12.17;9.63;;;9.70;99.90;;;;;;5081809;28;20673;-81
2023/02/12 02:30:30;;;;;;;12.43;10.23;;;9.80;99.90;;;;;;5081517;28;20216;-83
2023/02/12 02:33:08;;;;;;;10.53;9.50;;;9.40;99.90;;;;;;5094864;28;20200;-82
2023/02/12 02:35:42;;;;;;;9.30;8.50;;;9.10;99.90;;;;;;5095129;28;20192;-84
2023/02/12 02:38:22;;;;;;;10.30;9.30;;;9.20;99.90;;;;;;5095183;28;20208;-82
2023/02/12 02:40:54;;;;;;;10.20;9.10;;;9.20;99.90;;;;;;5094528;28;20193;-82
2023/02/12 02:43:27;;;;;;;9.93;9.00;;;9.30;99.90;;;;;;5086392;28;20209;-82
2023/02/12 02:46:00;;;;;;;10.60;9.33;;;9.40;99.90;;;;;;5094167;28;20683;-81
2023/02/12 02:48:33;;;;;;;10.93;9.10;;;9.50;99.90;;;;;;5081000;28;20221;-83
2023/02/12 02:51:05;;;;;;;12.73;9.87;;;9.60;99.90;;;;;;5094588;28;20645;-84
2023/02/12 02:53:36;;;;;;;11.27;10.03;;;9.70;99.90;;;;;;5092011;28;20207;-83
2023/02/12 02:56:06;;;;;;;10.47;9.60;;;9.70;99.90;;;;;;5086731;28;20207;-82
2023/02/12 02:58:39;;;;;;;11.40;9.80;;;9.60;99.90;;;;;;5085944;28;20209;-84
2023/02/12 03:01:12;;;;;;;10.47;9.37;;;9.50;99.90;;;;;;5087902;28;20225;-84
2023/02/12 03:03:47;;;;;;;10.00;9.10;;;9.50;99.90;;;;;;5086849;28;20631;-83
2023/02/12 03:06:20;;;;;;;10.80;9.80;;;9.40;99.90;;;;;;5085430;28;20205;-83
2023/02/12 03:08:50;;;;;;;9.77;8.83;;;9.50;99.90;;;;;;5086852;28;20205;-82
2023/02/12 03:11:23;;;;;;;9.20;8.40;;;9.50;99.90;;;;;;5094063;28;20281;-83
2023/02/12 03:13:57;;;;;;;8.93;8.23;;;9.50;99.90;;;;;;5094464;28;20300;-83
2023/02/12 03:16:30;;;;;;;10.60;9.57;;;9.50;99.90;;;;;;5094157;28;20283;-84
2023/02/12 03:19:04;;;;;;;7.60;7.00;;;9.40;99.90;;;;;;5094232;28;20201;-80
2023/02/12 03:21:37;;;;;;;9.65;8.95;;;9.30;99.90;;;;;;5092953;28;20442;-80
2023/02/12 03:24:11;;;;;;;8.60;7.80;;;9.40;99.90;;;;;;5094309;28;20216;-82
2023/02/12 03:26:45;;;;;;;8.23;7.53;;;9.30;99.90;;;;;;5094516;28;20213;-83
2023/02/12 03:29:12;;;;;;;9.50;8.73;;;9.20;99.90;;;;;;5094108;28;20201;-82
2023/02/12 03:31:51;;;;;;;10.73;9.67;;;9.30;99.90;;;;;;5094217;28;20543;-81
2023/02/12 03:34:26;;;;;;;10.90;9.80;;;9.50;99.90;;;;;;5093768;28;20209;-81
2023/02/12 03:36:57;;;;;;;9.17;8.37;;;9.50;99.90;;;;;;5094125;28;20212;-83
2023/02/12 03:39:30;;;;;;;9.57;8.80;;;9.50;99.90;;;;;;5092740;28;20661;-83
2023/02/12 03:42:03;;;;;;;10.07;9.17;;;9.60;99.90;;;;;;5086991;28;20233;-84
2023/02/12 03:44:45;;;;;;;10.50;9.50;;;9.70;99.90;;;;;;5082188;28;20197;-83
2023/02/12 03:47:20;;;;;;;11.33;10.07;;;9.60;99.90;;;;;;5093607;28;20660;-82
2023/02/12 03:49:55;;;;;;;11.47;10.47;;;9.70;99.90;;;;;;5093542;28;20205;-81
2023/02/12 03:52:22;;;;;;;10.97;9.90;;;9.50;99.90;;;;;;5093643;28;20205;-81
2023/02/12 03:54:50;;;;;;;12.67;10.80;;;9.50;99.90;;;;;;5093026;28;20209;-81
2023/02/12 03:57:20;;;;;;;12.23;11.03;;;9.60;99.90;;;;;;5080211;28;20209;-80
2023/02/12 03:59:48;;;;;;;12.37;11.07;;;9.60;99.90;;;;;;5093449;28;20212;-80
2023/02/12 04:02:18;;;;;;;11.60;10.60;;;9.50;99.90;;;;;;5093027;28;20239;-78
2023/02/12 04:04:47;;;;;;;12.60;10.40;;;9.50;99.90;;;;;;5092250;28;20205;-80
2023/02/12 04:07:16;;;;;;;11.87;10.87;;;9.40;99.90;;;;;;5081657;28;20713;-80
2023/02/12 04:09:49;;;;;;;12.33;11.07;;;9.40;99.90;;;;;;5090892;28;20201;-82
2023/02/12 04:12:32;;;;;;;11.53;10.20;;;9.40;99.90;;;;;;5082997;28;20211;-79
2023/02/12 04:15:12;;;;;;;12.30;11.07;;;9.40;99.90;;;;;;5092986;28;20585;-78
2023/02/12 04:17:50;;;;;;;12.17;10.97;;;9.50;99.90;;;;;;5092823;28;20232;-80
2023/02/12 04:20:25;;;;;;;14.18;12.88;;;9.40;99.90;;;;;;5092148;28;20908;-80
2023/02/12 04:23:01;;;;;;;12.50;11.07;;;9.60;99.90;;;;;;5092312;28;20229;-79
2023/02/12 04:25:43;;;;;;;11.37;10.37;;;9.60;99.90;;;;;;5093081;28;20212;-82
2023/02/12 04:28:21;;;;;;;11.43;10.43;;;9.60;99.90;;;;;;5093011;28;20197;-80
2023/02/12 04:30:57;;;;;;;11.43;10.43;;;9.60;99.90;;;;;;5093029;28;20219;-78
2023/02/12 04:33:28;;;;;;;11.73;10.53;;;9.50;99.90;;;;;;5092768;28;20219;-79
2023/02/12 04:36:01;;;;;;;12.50;11.30;;;9.40;99.90;;;;;;5092382;28;20193;-79
2023/02/12 04:38:34;;;;;;;16.90;11.13;;;9.40;99.90;;;;;;5081804;28;20206;-80
2023/02/12 04:41:02;;;;;;;12.03;10.83;;;9.60;99.90;;;;;;5091375;28;20231;-82
2023/02/12 04:43:30;;;;;;;11.63;10.63;;;9.60;99.90;;;;;;5092960;28;20241;-79
2023/02/12 04:45:57;;;;;;;13.27;12.00;;;9.50;99.90;;;;;;5089818;28;20204;-81
2023/02/12 04:48:25;;;;;;;13.33;11.87;;;9.50;99.90;;;;;;5088471;28;20204;-78
2023/02/12 04:50:52;;;;;;;14.40;13.15;;;9.30;99.90;;;;;;5087329;28;20446;-79
2023/02/12 04:53:20;;;;;;;13.77;12.30;;;9.30;99.90;;;;;;5081221;28;20213;-79
2023/02/12 04:55:48;;;;;;;13.33;12.03;;;9.50;99.90;;;;;;5085918;28;20208;-79
2023/02/12 04:58:15;;;;;;;13.30;12.00;;;9.60;99.90;;;;;;5087810;28;20567;-79
2023/02/12 05:00:44;;;;;;;13.47;12.13;;;9.60;99.90;;;;;;5084529;28;20197;-80
2023/02/12 05:03:11;;;;;;;13.27;11.93;;;9.60;99.90;;;;;;5092769;28;20239;-79
2023/02/12 05:05:39;;;;;;;12.70;11.50;;;9.50;99.90;;;;;;5092893;28;20201;-80
2023/02/12 05:08:07;;;;;;;13.37;12.03;;;9.50;99.90;;;;;;5092318;28;20201;-79
2023/02/12 05:10:34;;;;;;;12.83;11.63;;;9.40;99.90;;;;;;5092693;28;20197;-78
2023/02/12 05:13:00;;;;;;;12.00;10.90;;;9.50;99.90;;;;;;5092801;28;20212;-78
2023/02/12 05:15:27;;;;;;;13.47;12.27;;;9.50;99.90;;;;;;5092125;28;20534;-80
2023/02/12 05:17:54;;;;;;;13.40;12.20;;;9.30;99.90;;;;;;5092276;28;20546;-79
2023/02/12 05:20:21;;;;;;;13.00;11.73;;;9.50;99.90;;;;;;5092390;28;20204;-80
2023/02/12 05:22:52;;;;;;;12.73;11.57;;;9.60;99.90;;;;;;5092708;28;20708;-79
2023/02/12 05:25:19;;;;;;;18.10;15.67;;;9.50;99.90;;;;;;5092563;28;20295;-81
2023/02/12 05:27:46;;;;;;;14.57;13.00;;;9.40;99.90;;;;;;5092540;28;20201;-80
2023/02/12 05:30:14;;;;;;;13.90;12.70;;;9.40;99.90;;;;;;5092462;28;20285;-80
2023/02/12 05:32:41;;;;;;;13.47;12.07;;;9.30;99.90;;;;;;5084967;28;20209;-80
2023/02/12 05:35:09;;;;;;;14.00;12.63;;;9.40;99.90;;;;;;5092395;28;20208;-81
2023/02/12 05:37:36;;;;;;;14.53;12.33;;;9.40;99.90;;;;;;5092211;28;20198;-80
2023/02/12 05:40:07;;;;;;;13.73;12.47;;;9.30;99.90;;;;;;5092543;28;20209;-81
2023/02/12 05:42:34;;;;;;;14.90;13.50;;;9.30;99.90;;;;;;5092227;28;20283;-81
2023/02/12 05:45:01;;;;;;;15.03;13.20;;;9.30;99.90;;;;;;5092868;28;20213;-82
2023/02/12 05:47:28;;;;;;;13.93;12.63;;;9.40;99.90;;;;;;5091917;28;20720;-82
2023/02/12 05:49:55;;;;;;;14.38;12.88;;;9.40;99.90;;;;;;5091675;28;20794;-82
2023/02/12 05:52:22;;;;;;;13.50;12.10;;;9.40;99.90;;;;;;5091934;28;20208;-78
2023/02/12 05:54:50;;;;;;;13.67;11.73;;;9.40;99.90;;;;;;5092028;28;20303;-79
2023/02/12 05:57:18;;;;;;;13.23;11.87;;;9.40;99.90;;;;;;5091930;28;20543;-80
2023/02/12 05:59:47;;;;;;;14.27;12.77;;;9.20;99.90;;;;;;5092202;28;20201;-79
2023/02/12 06:02:13;;;;;;;14.37;13.07;;;9.20;99.90;;;;;;5092488;28;20236;-79
2023/02/12 06:04:40;;;;;;;16.87;13.00;;;9.10;99.90;;;;;;5095607;28;20216;-80
2023/02/12 06:07:07;;;;;;;16.13;13.63;;;9.20;99.90;;;;;;5090227;28;20205;-80
2023/02/12 06:09:34;;;;;;;14.63;13.23;;;9.10;99.90;;;;;;5087684;28;20228;-80
2023/02/12 06:12:01;;;;;;;16.03;14.47;;;8.90;99.90;;;;;;5095836;28;20197;-81
2023/02/12 06:14:30;;;;;;;18.83;13.87;;;8.90;99.90;;;;;;5095103;28;20197;-81
2023/02/12 06:16:56;;;;;;;16.27;14.60;;;9.00;99.90;;;;;;5095024;28;20245;-78
2023/02/12 06:19:24;;;;;;;16.37;14.87;;;8.90;99.90;;;;;;5095285;28;20206;-78
2023/02/12 06:21:50;;;;;;;16.70;15.00;;;8.90;99.90;;;;;;5095143;28;20318;-80
2023/02/12 06:24:18;;;;;;;17.33;15.53;;;8.90;99.90;;;;;;5081638;28;20208;-79
2023/02/12 06:26:45;;;;;;;17.00;15.20;;;8.90;99.90;;;;;;5081470;28;20201;-79
2023/02/12 06:29:14;;;;;;;15.83;14.27;;;8.80;99.90;;;;;;5095089;28;20205;-79
2023/02/12 06:31:43;;;;;;;16.33;14.60;;;9.00;99.90;;;;;;5075509;28;20205;-81
2023/02/12 06:34:12;;;;;;;9.67;8.87;;;9.00;99.90;;;;;;5089169;28;20205;-79
2023/02/12 06:36:40;;;;;;;9.37;8.53;;;8.80;99.90;;;;;;5086957;28;20209;-79
2023/02/12 06:39:08;;;;;;;14.57;12.93;;;8.70;99.90;;;;;;5089229;28;20205;-79
2023/02/12 06:41:34;;;;;;;15.63;13.77;;;8.80;99.90;;;;;;5095061;28;20209;-81
2023/02/12 06:44:01;;;;;;;16.53;14.67;;;8.90;99.90;;;;;;5094939;28;20228;-79
2023/02/12 06:46:29;;;;;;;20.00;16.93;;;8.90;99.90;;;;;;5094819;28;20197;-80
2023/02/12 06:49:00;;;;;;;17.17;15.57;;;9.00;99.90;;;;;;5093955;28;20571;-82
2023/02/12 06:51:28;;;;;;;17.23;15.63;;;9.00;99.90;;;;;;5094874;28;20216;-81
2023/02/12 06:53:56;;;;;;;16.70;15.00;;;8.90;99.90;;;;;;5094257;28;20535;-79
2023/02/12 06:56:24;;;;;;;15.93;14.33;;;8.90;99.90;;;;;;5084615;28;20221;-81
2023/02/12 06:58:54;;;;;;;16.03;14.47;;;9.00;99.90;;;;;;5092096;28;20204;-80
2023/02/12 07:01:23;;;;;;;15.30;13.83;;;8.90;99.90;;;;;;5095176;28;20197;-79
2023/02/12 07:03:52;;;;;;;15.17;13.77;;;9.00;99.90;;;;;;5094466;28;20228;-79
2023/02/12 07:06:21;;;;;;;15.37;13.53;;;9.10;99.90;;;;;;5094670;28;20201;-82
2023/02/12 07:08:48;;;;;;;16.10;14.60;;;9.10;99.90;;;;;;5088899;28;20202;-81
2023/02/12 07:11:24;;;;;;;18.10;14.47;;;9.10;99.90;;;;;;5087051;28;20201;-81
2023/02/12 07:13:51;;;;;;;15.90;14.30;;;9.10;99.90;;;;;;5081041;28;20209;-83
2023/02/12 07:16:17;;;;;;;16.53;14.77;;;9.10;99.90;;;;;;5080848;28;20598;-84
2023/02/12 07:18:47;;;;;;;17.50;15.73;;;9.00;99.90;;;;;;5094044;28;20201;-83
2023/02/12 07:21:15;;;;;;;17.43;15.77;;;9.00;99.90;;;;;;5094265;28;20212;-83
2023/02/12 07:23:47;;;;;;;15.27;13.83;;;8.90;99.90;;;;;;5094310;28;20244;-84
2023/02/12 07:26:15;;;;;;;16.33;14.93;;;8.90;99.90;;;;;;5094213;28;20201;-80
2023/02/12 07:28:42;;;;;;;19.73;17.57;;;8.80;99.90;;;;;;5084848;28;20212;-81
2023/02/12 07:31:11;;;;;;;20.30;18.30;;;8.80;99.90;;;;;;5090259;28;20292;-82
2023/02/12 07:33:38;;;;;;;20.50;18.53;;;8.70;99.90;;;;;;5094258;28;20212;-82
2023/02/12 07:36:07;;;;;;;22.40;19.50;;;8.80;99.90;;;;;;5094425;28;20201;-83
2023/02/12 07:38:35;;;;;;;21.67;19.63;;;8.90;99.90;;;;;;5083563;28;20225;-81
2023/02/12 07:41:14;;;;;;;23.67;21.33;;;9.10;99.90;;;;;;5091944;28;20623;-81
2023/02/12 07:43:42;;;;;;;23.67;21.27;;;9.10;99.90;;;;;;5093627;28;20586;-80
2023/02/12 07:46:11;;;;;;;22.47;20.20;;;9.10;99.90;;;;;;5080396;28;20269;-80
2023/02/12 07:48:37;;;;;;;21.10;19.00;;;9.20;99.90;;;;;;5093101;28;20220;-80
2023/02/12 07:51:07;;;;;;;23.88;21.65;;;9.20;99.90;;;;;;5080584;28;20423;-79
2023/02/12 07:53:33;;;;;;;22.47;20.10;;;9.30;99.90;;;;;;5093625;28;20205;-80
2023/02/12 07:56:08;;;;;;;21.63;19.50;;;9.30;99.90;;;;;;5085068;28;20198;-80
2023/02/12 07:58:37;;;;;;;21.40;19.20;;;9.40;99.90;;;;;;5089445;28;20223;-82
2023/02/12 08:01:17;;;;;;;22.20;19.90;;;9.20;99.90;;;;;;5092980;28;20554;-79
2023/02/12 08:03:44;;;;;;;24.43;21.90;;;9.10;99.90;;;;;;5093215;28;20316;-81
2023/02/12 08:06:16;;;;;;;22.93;20.60;;;9.20;99.90;;;;;;5093578;28;20635;-79
2023/02/12 08:08:43;;;;;;;22.77;20.30;;;9.10;99.90;;;;;;5093196;28;20202;-79
2023/02/12 08:11:12;;;;;;;22.47;20.07;;;8.80;99.90;;;;;;5093349;28;20204;-81
2023/02/12 08:13:41;;;;;;;21.43;19.23;;;8.60;99.90;;;;;;5092758;28;20201;-78
2023/02/12 08:16:10;;;;;;;23.93;21.43;;;8.80;99.90;;;;;;5092728;28;20221;-80
2023/02/12 08:18:37;;;;;;;25.23;21.33;;;8.90;99.90;;;;;;5080178;28;20640;-79
2023/02/12 08:21:06;;;;;;;23.73;21.10;;;9.10;99.90;;;;;;5091829;28;20209;-78
2023/02/12 08:23:34;;;;;;;25.27;22.57;;;9.30;99.90;;;;;;5091542;28;20631;-79
2023/02/12 08:26:09;;;;;;;24.83;21.10;;;9.40;99.90;;;;;;5091505;28;20197;-81
2023/02/12 08:28:38;;;;;;;27.57;22.00;;;9.40;99.90;;;;;;5089659;28;20197;-82
2023/02/12 08:31:09;;;;;;;25.97;23.07;;;9.40;99.90;;;;;;5089881;28;20205;-80
2023/02/12 08:33:35;;;;;;;24.47;21.87;;;9.30;99.90;;;;;;5092508;28;20205;-78
2023/02/12 08:36:04;;;;;;;25.20;22.53;;;9.00;99.90;;;;;;5092524;28;20205;-79
2023/02/12 08:38:31;;;;;;;26.90;23.37;;;9.00;99.90;;;;;;5092094;28;20204;-79
2023/02/12 08:41:02;;;;;;;26.03;23.23;;;9.20;99.90;;;;;;5092525;28;20205;-78
2023/02/12 08:43:29;;;;;;;26.73;22.13;;;9.30;99.90;;;;;;5092600;28;20225;-80
2023/02/12 08:46:02;;;;;;;25.33;22.57;;;9.20;99.90;;;;;;5091925;28;20687;-81
2023/02/12 08:48:30;;;;;;;30.17;23.80;;;8.80;99.90;;;;;;5092044;28;20205;-80
2023/02/12 08:51:03;;;;;;;23.73;21.23;;;8.70;99.90;;;;;;5090964;28;20201;-79
2023/02/12 08:53:30;;;;;;;25.63;21.50;;;8.70;99.90;;;;;;5091936;28;20205;-80
2023/02/12 08:55:57;;;;;;;30.27;21.67;;;8.80;99.90;;;;;;5092499;28;20212;-80
2023/02/12 08:58:25;;;;;;;26.27;22.23;;;9.00;99.90;;;;;;5092213;28;20224;-79
2023/02/12 09:00:54;;;;;;;24.33;21.77;;;9.10;99.90;;;;;;5092202;28;20205;-78
2023/02/12 09:03:21;;;;;;;20.40;18.23;;;9.50;99.90;;;;;;5088974;28;20228;-80
2023/02/12 09:05:49;;;;;;;22.00;19.63;;;9.20;99.90;;;;;;5092058;28;20242;-80
2023/02/12 09:08:17;;;;;;;23.67;20.00;;;9.30;99.90;;;;;;5092008;28;20231;-80
2023/02/12 09:10:45;;;;;;;22.17;19.63;;;9.10;99.90;;;;;;5084199;28;20209;-79
2023/02/12 09:13:14;;;;;;;23.47;20.97;;;9.10;99.90;;;;;;5089115;28;20208;-85
2023/02/12 09:15:43;;;;;;;24.73;22.07;;;9.00;99.90;;;;;;5089403;28;20217;-82
2023/02/12 09:18:10;;;;;;;21.37;19.10;;;9.10;99.90;;;;;;5089952;28;20563;-82
2023/02/12 09:20:41;;;;;;;21.63;19.43;;;9.40;99.90;;;;;;5091950;28;20197;-90
2023/02/12 09:23:10;;;;;;;26.33;20.63;;;9.50;99.90;;;;;;5089830;28;20224;-90
2023/02/12 09:25:40;;;;;;;19.83;17.77;;;9.60;99.90;;;;;;5088439;28;20186;-86
2023/02/12 09:28:07;;;;;;;23.90;18.67;;;9.70;99.90;;;;;;5086985;28;20216;-85
2023/02/12 09:30:34;;;;;;;20.93;17.57;;;9.40;99.90;;;;;;5090497;28;20563;-83
2023/02/12 09:33:01;;;;;;;22.57;19.47;;;9.50;99.90;;;;;;5084693;28;20207;-85
2023/02/12 09:35:28;;;;;;;23.10;20.87;;;9.80;99.90;;;;;;5089907;28;20209;-84
2023/02/12 09:37:54;;;;;;;22.73;20.30;;;9.60;99.90;;;;;;5090243;28;20568;-86
2023/02/12 09:40:38;;;;;;;22.73;20.30;;;9.70;99.90;;;;;;5086037;28;20209;-87
2023/02/12 09:43:17;;;;;;;23.10;20.70;;;9.80;99.90;;;;;;5091840;28;20683;-80
2023/02/12 09:45:52;;;;;;;23.43;21.03;;;9.60;99.90;;;;;;5087593;28;20212;-80
2023/02/12 09:48:35;;;;;;;21.47;19.17;;;9.50;99.90;;;;;;5096834;28;20588;-81
2023/02/12 09:51:07;;;;;;;25.63;23.23;;;9.40;99.90;;;;;;5091182;28;20435;-82
2023/02/12 09:53:39;;;;;;;21.63;19.33;;;9.50;99.90;;;;;;5092016;28;20201;-84
2023/02/12 09:56:13;;;;;;;22.70;20.33;;;9.60;99.90;;;;;;5089253;28;20219;-84
2023/02/12 09:58:45;;;;;;;18.23;16.53;;;9.70;99.90;;;;;;5083124;28;20204;-81
2023/02/12 10:01:13;;;;;;;21.73;18.90;;;9.80;99.90;;;;;;5074479;28;20691;-81
2023/02/12 10:03:41;;;;;;;21.50;19.30;;;9.80;99.90;;;;;;5089459;28;20684;-83
2023/02/12 10:06:13;;;;;;;22.50;20.23;;;9.70;99.90;;;;;;5095878;28;20644;-82
2023/02/12 10:08:55;;;;;;;24.45;21.95;;;9.90;99.90;;;;;;5082263;28;20441;-84
2023/02/12 10:11:47;;;;;;;22.03;19.83;;;9.50;99.90;;;;;;5087163;28;20308;-84
2023/02/12 10:14:37;;;;;;;23.27;18.63;;;9.70;99.90;;;;;;5088505;28;20208;-82
2023/02/12 10:17:10;;;;;;;23.00;20.17;;;9.90;99.90;;;;;;5095211;28;20726;-83
2023/02/12 10:20:01;;;;;;;22.30;20.07;;;9.70;99.90;;;;;;5095787;28;20224;-84
2023/02/12 10:22:38;;;;;;;25.60;20.47;;;9.50;99.90;;;;;;5089495;28;20213;-82
2023/02/12 10:25:22;;;;;;;25.40;21.60;;;9.60;99.90;;;;;;5088373;28;20427;-81
2023/02/12 10:27:55;;;;;;;25.40;21.13;;;9.90;99.90;;;;;;5086870;28;20526;-82
2023/02/12 10:30:26;;;;;;;23.80;21.30;;;10.20;99.90;;;;;;5092789;28;20316;-83
2023/02/12 10:32:58;;;;;;;25.27;20.67;;;10.30;99.90;;;;;;5095080;28;20221;-82
2023/02/12 10:35:26;;;;;;;25.27;21.50;;;10.50;99.90;;;;;;5090998;28;20211;-80
2023/02/12 10:37:58;;;;;;;20.87;18.67;;;10.70;99.90;;;;;;5095179;28;20211;-81
2023/02/12 10:40:28;;;;;;;17.17;15.40;;;10.70;99.90;;;;;;5094644;28;20233;-81
2023/02/12 10:43:02;;;;;;;22.20;15.20;;;10.40;99.90;;;;;;5088593;28;20219;-82
2023/02/12 10:45:32;;;;;;;17.53;15.77;;;10.60;99.90;;;;;;5081962;28;20273;-82
2023/02/12 10:48:07;;;;;;;19.07;15.20;;;10.70;99.90;;;;;;5094206;28;20206;-85
2023/02/12 10:50:44;;;;;;;20.17;15.37;;;10.30;99.90;;;;;;5095019;28;20209;-84
2023/02/12 10:53:18;;;;;;;20.37;16.87;;;10.30;99.90;;;;;;5094666;28;20540;-84
2023/02/12 10:55:46;;;;;;;20.30;15.97;;;10.40;99.90;;;;;;5094718;28;20211;-82
2023/02/12 10:58:24;;;;;;;18.87;16.33;;;10.50;99.90;;;;;;5094805;28;20218;-85
2023/02/12 11:00:57;;;;;;;13.37;11.97;;;10.40;99.90;;;;;;5081817;28;20264;-84
2023/02/12 11:03:33;;;;;;;15.53;13.37;;;10.20;99.90;;;;;;5090860;28;20203;-82
2023/02/12 11:06:12;;;;;;;13.73;12.20;;;10.50;99.90;;;;;;5094088;28;20230;-83
2023/02/12 11:08:39;;;;;;;13.77;12.10;;;11.00;99.90;;;;;;5080902;28;20276;-80
2023/02/12 11:11:10;;;;;;;14.97;13.03;;;11.00;99.90;;;;;;5093968;28;20250;-83
2023/02/12 11:13:41;;;;;;;14.53;13.03;;;10.90;99.90;;;;;;5093579;28;20203;-82
2023/02/12 11:16:09;;;;;;;16.13;14.55;;;10.80;99.90;;;;;;5093119;28;20928;-82
2023/02/12 11:18:36;;;;;;;14.57;13.13;;;10.70;99.90;;;;;;5094170;28;20231;-83
2023/02/12 11:21:06;;;;;;;13.20;11.83;;;10.90;99.90;;;;;;5094231;28;20206;-82
2023/02/12 11:23:34;;;;;;;13.13;11.87;;;10.90;99.90;;;;;;5093538;28;20207;-83
2023/02/12 11:26:03;;;;;;;14.47;12.97;;;11.00;99.90;;;;;;5094108;28;20214;-84
2023/02/12 11:28:31;;;;;;;15.23;13.60;;;11.30;99.90;;;;;;5083899;28;20207;-85
2023/02/12 11:31:01;;;;;;;14.60;13.10;;;11.30;99.90;;;;;;5093037;28;20203;-83
2023/02/12 11:33:30;;;;;;;15.93;13.77;;;11.20;99.90;;;;;;5094071;28;20643;-88
2023/02/12 11:36:00;;;;;;;14.27;12.83;;;11.10;99.90;;;;;;5094257;28;20214;-83
2023/02/12 11:38:33;;;;;;;18.90;14.73;;;11.00;99.90;;;;;;5087420;28;20681;-82
2023/02/12 11:41:04;;;;;;;15.40;13.77;;;10.80;99.90;;;;;;5091084;28;20203;-78
2023/02/12 11:43:36;;;;;;;17.40;14.47;;;10.80;99.90;;;;;;5089526;28;20223;-80
2023/02/12 11:46:07;;;;;;;18.13;15.17;;;10.70;99.90;;;;;;5089668;28;20260;-79
2023/02/12 11:48:37;;;;;;;15.70;14.07;;;10.70;99.90;;;;;;5093203;28;20253;-79
2023/02/12 11:51:08;;;;;;;22.80;15.83;;;10.80;99.90;;;;;;5090633;28;20204;-79
2023/02/12 11:53:40;;;;;;;17.53;15.33;;;11.00;99.90;;;;;;5083578;28;20260;-79
2023/02/12 11:56:09;;;;;;;18.07;15.57;;;11.10;99.90;;;;;;5092075;28;20207;-81
2023/02/12 11:58:37;;;;;;;18.27;15.47;;;11.00;99.90;;;;;;5092527;28;20693;-80
2023/02/12 12:01:12;;;;;;;21.40;15.90;;;11.00;99.90;;;;;;5090401;28;20215;-81
2023/02/12 12:03:45;;;;;;;17.83;16.03;;;11.10;99.90;;;;;;5084705;28;20245;-80
2023/02/12 12:06:31;;;;;;;20.77;15.83;;;10.60;99.90;;;;;;5080637;28;20208;-81
2023/02/12 12:09:05;;;;;;;18.17;14.90;;;10.80;99.90;;;;;;5081905;28;20298;-80
2023/02/12 12:11:46;;;;;;;17.27;15.33;;;11.30;99.90;;;;;;5092952;28;20635;-80
2023/02/12 12:14:21;;;;;;;17.53;14.77;;;11.30;99.90;;;;;;5093444;28;20566;-81
2023/02/12 12:19:54;;;;;;;18.07;15.63;;;11.20;99.90;;;;;;5078091;28;20667;-81
2023/02/12 12:22:42;;;;;;;18.50;16.00;;;11.40;99.90;;;;;;5091999;28;20732;-80
2023/02/12 12:25:29;;;;;;;19.17;16.10;;;11.50;99.90;;;;;;5082084;28;20824;-80
2023/02/12 12:28:05;;;;;;;17.97;15.77;;;11.50;99.90;;;;;;5084175;28;20212;-81
2023/02/12 12:30:50;;;;;;;18.53;16.30;;;11.70;99.90;;;;;;5090541;28;20204;-85
2023/02/12 12:33:26;;;;;;;20.43;16.43;;;10.80;99.90;;;;;;5079985;28;20266;-82
2023/02/12 12:36:19;;;;;;;19.53;16.37;;;10.90;99.90;;;;;;5080710;28;20558;-82
2023/02/12 12:38:53;;;;;;;20.97;16.87;;;11.10;99.90;;;;;;5083727;28;20211;-81
2023/02/12 12:41:31;;;;;;;19.80;16.20;;;10.80;99.90;;;;;;5092969;28;20218;-82
2023/02/12 12:44:13;;;;;;;18.07;15.47;;;10.60;99.90;;;;;;5092989;28;20207;-80
2023/02/12 12:46:59;;;;;;;20.13;16.27;;;11.00;99.90;;;;;;5089292;28;20275;-80
2023/02/12 12:49:48;;;;;;;20.07;16.30;;;11.10;99.90;;;;;;5086263;28;20204;-80
2023/02/12 12:52:43;;;;;;;20.23;16.20;;;11.00;99.90;;;;;;5073000;28;20205;-82
2023/02/12 12:55:45;;;;;;;19.83;17.23;;;11.00;99.90;;;;;;5080289;28;20210;-82
2023/02/12 12:58:21;;;;;;;20.77;16.20;;;11.30;99.90;;;;;;5093183;28;20207;-82
2023/02/12 13:01:04;;;;;;;18.90;16.47;;;11.10;99.90;;;;;;5092829;28;20212;-81
2023/02/12 13:04:05;;;;;;;19.97;16.87;;;10.90;99.90;;;;;;5092811;28;20207;-81